Time;durP1;ratioP1;P1;durP2;ratioP2;P2;SDS_P1;SDS_P2;PMS_P1;PMS_P2;Temp;Humidity;BMP_temperature;BMP_pressure;BME280_temperature;BME280_humidity;BME280_pressure;Samples;Min_cycle;Max_cycle;Signal;HPM_P1;HPM_P2
2021/09/16 00:01:55;;;;;;;9.20;6.30;;;;;;;17.69;79.91;96281.77;1683747;84;21398;-84
2021/09/16 00:04:21;;;;;;;7.95;6.30;;;;;;;17.74;79.97;96286.36;1695724;84;21099;-84
2021/09/16 00:06:47;;;;;;;9.25;6.40;;;;;;;17.79;79.84;96286.47;1686564;84;21060;-84
2021/09/16 00:09:13;;;;;;;8.05;7.08;;;;;;;17.79;79.87;96283.84;1704560;84;20976;-84
2021/09/16 00:11:39;;;;;;;7.25;6.55;;;;;;;17.78;79.83;96283.55;1676938;84;21039;-84
2021/09/16 00:14:04;;;;;;;7.92;6.90;;;;;;;17.75;79.83;96287.96;1672972;85;21106;-84
2021/09/16 00:16:30;;;;;;;7.62;6.90;;;;;;;17.76;80.10;96286.93;1696262;84;21019;-84
2021/09/16 00:18:56;;;;;;;7.75;5.92;;;;;;;17.75;80.10;96291.39;1668894;84;21057;-84
2021/09/16 00:21:21;;;;;;;7.95;7.15;;;;;;;17.74;79.92;96283.22;1676441;84;21016;-84
2021/09/16 00:23:47;;;;;;;7.30;6.60;;;;;;;17.72;79.80;96278.68;1669508;84;21070;-84
2021/09/16 00:26:13;;;;;;;7.50;6.80;;;;;;;17.70;79.66;96282.05;1693560;84;20976;-84
2021/09/16 00:28:39;;;;;;;8.38;6.90;;;;;;;17.70;79.67;96284.17;1628965;85;21008;-84
2021/09/16 00:31:04;;;;;;;7.17;6.47;;;;;;;17.73;79.88;96283.42;1677410;84;21118;-84
2021/09/16 00:33:32;;;;;;;6.97;6.28;;;;;;;17.75;79.91;96282.19;1694907;84;21075;-84
2021/09/16 00:35:58;;;;;;;8.15;6.78;;;;;;;17.78;79.70;96275.67;1679025;84;21013;-84
2021/09/16 00:38:24;;;;;;;10.28;6.83;;;;;;;17.80;79.16;96273.09;1692353;84;21114;-84
2021/09/16 00:40:49;;;;;;;8.63;6.70;;;;;;;17.84;79.00;96270.80;1673241;84;21022;-84
2021/09/16 00:43:15;;;;;;;8.15;7.30;;;;;;;17.88;78.93;96276.67;1702514;84;21006;-84
2021/09/16 00:45:41;;;;;;;8.18;7.05;;;;;;;17.91;78.63;96272.30;1693333;84;21061;-84
2021/09/16 00:48:06;;;;;;;7.30;6.47;;;;;;;18.00;78.45;96280.61;1690711;84;21053;-84
2021/09/16 00:50:32;;;;;;;9.40;6.45;;;;;;;18.12;77.83;96281.92;1675550;84;21059;-84
2021/09/16 00:52:58;;;;;;;7.40;6.70;;;;;;;18.23;77.39;96283.73;1661665;85;21506;-84
2021/09/16 00:55:24;;;;;;;6.85;6.25;;;;;;;18.36;77.34;96280.03;1690120;84;21027;-84
2021/09/16 00:57:52;;;;;;;7.12;6.53;;;;;;;18.45;76.72;96272.06;1644098;84;22143;-84
2021/09/16 01:00:18;;;;;;;7.67;6.70;;;;;;;18.50;76.23;96268.20;1694008;84;21118;-84
2021/09/16 01:02:43;;;;;;;7.22;6.30;;;;;;;18.58;76.41;96273.91;1683095;84;21050;-84
2021/09/16 01:05:10;;;;;;;6.75;6.08;;;;;;;18.60;75.40;96268.41;1684388;84;21033;-84
2021/09/16 01:07:38;;;;;;;8.13;6.42;;;;;;;18.72;75.12;96271.03;1684503;84;20995;-84
2021/09/16 01:10:05;;;;;;;9.58;6.22;;;;;;;18.81;74.59;96266.97;1691635;84;21044;-84
2021/09/16 01:12:31;;;;;;;7.67;6.65;;;;;;;18.92;74.71;96271.39;1683066;84;21134;-84
2021/09/16 01:14:57;;;;;;;6.92;6.33;;;;;;;18.95;74.09;96270.91;1687909;84;21524;-84
2021/09/16 01:17:22;;;;;;;8.65;7.28;;;;;;;18.99;74.19;96268.60;1683923;84;21095;-84
2021/09/16 01:19:48;;;;;;;8.25;6.60;;;;;;;19.04;73.75;96268.19;1683781;84;21014;-84
2021/09/16 01:22:21;;;;;;;7.47;6.42;;;;;;;19.16;73.35;96264.15;1684971;84;21047;-84
2021/09/16 01:24:46;;;;;;;6.90;6.20;;;;;;;19.21;73.34;96268.20;1699698;83;21413;-84
2021/09/16 01:27:12;;;;;;;7.55;6.78;;;;;;;19.24;72.71;96265.61;1670241;85;21035;-84
2021/09/16 01:29:38;;;;;;;8.50;6.60;;;;;;;19.29;72.97;96268.31;1683964;84;21009;-84
2021/09/16 01:32:05;;;;;;;7.28;6.58;;;;;;;19.31;72.92;96264.40;1675648;84;20992;-84
2021/09/16 01:34:31;;;;;;;10.23;6.80;;;;;;;19.33;72.82;96265.48;1689262;84;21388;-84
2021/09/16 01:36:57;;;;;;;7.28;6.47;;;;;;;19.35;72.32;96265.52;1688356;84;21505;-84
2021/09/16 01:39:24;;;;;;;8.18;7.37;;;;;;;19.43;71.37;96266.97;1682143;84;21011;-84
2021/09/16 01:41:50;;;;;;;8.13;6.97;;;;;;;19.54;71.38;96265.30;1678207;84;20999;-84
2021/09/16 01:44:16;;;;;;;7.70;6.37;;;;;;;19.60;71.36;96266.47;1702076;83;21436;-84
2021/09/16 01:46:43;;;;;;;8.20;5.92;;;;;;;19.65;71.25;96271.00;1674471;84;21109;-84
2021/09/16 01:49:09;;;;;;;7.62;6.03;;;;;;;19.64;71.25;96266.25;1679122;84;20976;-84
2021/09/16 01:51:35;;;;;;;7.85;6.60;;;;;;;19.64;70.11;96261.50;1677936;84;21341;-84
2021/09/16 01:54:01;;;;;;;7.70;6.90;;;;;;;19.70;71.17;96266.63;1653221;85;21086;-84
2021/09/16 01:56:27;;;;;;;7.58;6.80;;;;;;;19.70;71.14;96264.51;1673225;85;21382;-84
2021/09/16 01:58:53;;;;;;;7.72;7.03;;;;;;;19.65;71.29;96255.98;1665464;84;21454;-84
2021/09/16 02:01:18;;;;;;;6.80;6.10;;;;;;;19.59;70.90;96261.44;1672855;85;21026;-84
2021/09/16 02:03:44;;;;;;;7.72;7.00;;;;;;;19.55;70.72;96258.49;1680435;84;20995;-84
2021/09/16 02:06:10;;;;;;;7.50;6.80;;;;;;;19.55;71.03;96255.86;1675443;84;21047;-84
2021/09/16 02:08:36;;;;;;;9.53;6.72;;;;;;;19.53;71.39;96255.80;1673492;84;21464;-84
2021/09/16 02:11:02;;;;;;;9.58;6.90;;;;;;;19.51;70.70;96254.69;1691584;84;21031;-84
2021/09/16 02:13:28;;;;;;;7.25;6.50;;;;;;;19.50;70.75;96252.58;1698190;84;21064;-84
2021/09/16 02:15:54;;;;;;;7.78;6.97;;;;;;;19.54;70.46;96254.75;1684856;85;21003;-84
2021/09/16 02:18:20;;;;;;;8.25;7.50;;;;;;;19.59;69.92;96252.21;1685188;84;21052;-84
2021/09/16 02:20:46;;;;;;;9.75;7.90;;;;;;;19.59;70.94;96249.05;1661114;85;21113;-84
2021/09/16 02:23:11;;;;;;;7.47;6.70;;;;;;;19.59;70.31;96248.27;1667557;84;21096;-84
2021/09/16 02:25:37;;;;;;;7.42;6.72;;;;;;;19.59;70.79;96246.42;1690897;84;21467;-84
2021/09/16 02:28:03;;;;;;;7.25;6.55;;;;;;;19.56;70.80;96241.64;1693920;83;21063;-85
2021/09/16 02:30:29;;;;;;;6.97;6.20;;;;;;;19.56;70.32;96244.27;1658597;84;21038;-84
2021/09/16 02:32:55;;;;;;;7.87;6.95;;;;;;;19.59;70.75;96245.63;1681422;83;21026;-84
2021/09/16 02:35:21;;;;;;;7.72;6.92;;;;;;;19.57;70.74;96245.87;1682234;84;21376;-84
2021/09/16 02:37:48;;;;;;;7.00;6.30;;;;;;;19.57;70.04;96242.44;1695422;84;21125;-84
2021/09/16 02:40:14;;;;;;;6.72;6.12;;;;;;;19.61;70.00;96237.75;1667549;84;21072;-84
2021/09/16 02:42:39;;;;;;;7.50;6.80;;;;;;;19.62;70.29;96235.39;1692520;83;21449;-84
2021/09/16 02:45:06;;;;;;;7.20;6.60;;;;;;;19.59;70.30;96237.20;1713386;83;20964;-84
2021/09/16 02:47:32;;;;;;;8.10;7.00;;;;;;;19.54;69.95;96237.13;1713889;83;21070;-84
2021/09/16 02:49:58;;;;;;;7.00;6.30;;;;;;;19.56;70.45;96236.89;1674465;84;21481;-84
2021/09/16 02:52:24;;;;;;;7.28;6.58;;;;;;;19.56;69.97;96235.57;1687142;84;21419;-84
2021/09/16 02:54:49;;;;;;;7.78;6.97;;;;;;;19.58;70.25;96233.48;1671722;85;21091;-84
2021/09/16 02:57:15;;;;;;;7.42;6.55;;;;;;;19.60;70.13;96233.52;1657344;85;21016;-84
2021/09/16 02:59:41;;;;;;;7.45;6.75;;;;;;;19.61;69.98;96233.80;1681292;84;20979;-84
2021/09/16 03:02:07;;;;;;;7.75;7.05;;;;;;;19.62;70.19;96234.59;1673606;84;21068;-84
2021/09/16 03:04:33;;;;;;;7.45;6.75;;;;;;;19.62;69.91;96238.55;1685527;83;21399;-84
2021/09/16 03:06:58;;;;;;;8.05;7.30;;;;;;;19.63;69.85;96236.19;1686658;84;21090;-84
2021/09/16 03:09:24;;;;;;;7.20;6.50;;;;;;;19.64;69.88;96233.83;1681744;85;21101;-84
2021/09/16 03:11:50;;;;;;;7.12;6.42;;;;;;;19.63;69.74;96234.87;1680719;84;21507;-84
2021/09/16 03:14:16;;;;;;;7.60;6.40;;;;;;;19.62;69.94;96231.95;1682931;84;21003;-84
2021/09/16 03:16:42;;;;;;;7.15;6.20;;;;;;;19.64;69.70;96237.78;1681950;84;21414;-84
2021/09/16 03:19:07;;;;;;;9.88;6.95;;;;;;;19.66;69.40;96235.70;1678691;84;21039;-84
2021/09/16 03:21:33;;;;;;;8.03;7.33;;;;;;;19.68;69.85;96234.41;1673145;84;21430;-84
2021/09/16 03:23:59;;;;;;;9.20;7.62;;;;;;;19.69;69.71;96239.98;1661684;84;21033;-84
2021/09/16 03:26:25;;;;;;;8.80;8.00;;;;;;;19.67;69.75;96233.34;1667895;85;21390;-84
2021/09/16 03:28:51;;;;;;;8.88;6.67;;;;;;;19.62;69.93;96232.75;1669053;84;21111;-84
2021/09/16 03:31:17;;;;;;;12.25;7.25;;;;;;;19.58;69.62;96236.13;1673263;85;21043;-84
2021/09/16 03:33:42;;;;;;;6.67;5.95;;;;;;;19.61;69.53;96240.39;1695483;84;21082;-84
2021/09/16 03:36:08;;;;;;;8.53;7.50;;;;;;;19.63;69.74;96239.62;1672683;84;21002;-84
2021/09/16 03:38:34;;;;;;;9.25;7.35;;;;;;;19.61;70.06;96240.39;1671674;84;21073;-84
2021/09/16 03:41:00;;;;;;;8.00;6.60;;;;;;;19.56;70.32;96242.95;1685419;84;21516;-84
2021/09/16 03:43:26;;;;;;;7.37;6.67;;;;;;;19.51;70.32;96241.52;1679184;84;21050;-84
2021/09/16 03:45:52;;;;;;;8.35;6.85;;;;;;;19.46;70.34;96240.12;1689762;84;21037;-84
2021/09/16 03:48:18;;;;;;;8.08;6.87;;;;;;;19.42;70.37;96240.34;1672761;84;21018;-84
2021/09/16 03:50:44;;;;;;;7.90;7.10;;;;;;;19.40;70.40;96245.05;1671002;84;21079;-84
2021/09/16 03:53:10;;;;;;;8.00;7.20;;;;;;;19.38;70.32;96247.14;1659835;84;21007;-84
2021/09/16 03:55:36;;;;;;;8.13;7.30;;;;;;;19.39;70.50;96238.19;1689469;83;21005;-84
2021/09/16 03:58:01;;;;;;;8.28;7.47;;;;;;;19.37;70.49;96237.64;1690986;83;21011;-84
2021/09/16 04:00:27;;;;;;;9.58;6.75;;;;;;;19.35;70.79;96241.00;1698373;84;21045;-84
2021/09/16 04:02:53;;;;;;;9.33;8.33;;;;;;;19.32;70.98;96241.48;1672395;84;21013;-84
2021/09/16 04:05:19;;;;;;;8.58;6.65;;;;;;;19.27;71.00;96238.78;1708530;83;21434;-83
2021/09/16 04:07:44;;;;;;;9.18;6.78;;;;;;;19.23;71.10;96235.04;1715017;82;20992;-84
2021/09/16 04:10:10;;;;;;;7.00;6.35;;;;;;;19.21;71.18;96238.44;1701349;83;21033;-84
2021/09/16 04:12:36;;;;;;;9.60;7.53;;;;;;;19.21;71.18;96243.19;1697915;83;21407;-84
2021/09/16 04:15:04;;;;;;;7.80;7.08;;;;;;;19.20;71.30;96237.64;1710442;83;21047;-84
2021/09/16 04:17:30;;;;;;;7.47;6.75;;;;;;;19.20;71.37;96233.69;1698368;83;21173;-84
2021/09/16 04:19:55;;;;;;;8.13;7.42;;;;;;;19.22;71.53;96240.83;1695429;83;21436;-84
2021/09/16 04:22:21;;;;;;;8.25;7.45;;;;;;;19.19;71.39;96242.08;1698362;83;21108;-84
2021/09/16 04:24:47;;;;;;;9.80;7.75;;;;;;;19.17;71.61;96242.05;1698948;84;21536;-84
2021/09/16 04:27:13;;;;;;;10.30;7.67;;;;;;;19.14;71.61;96241.21;1718803;83;21096;-84
2021/09/16 04:29:42;;;;;;;7.40;6.72;;;;;;;19.14;71.86;96243.84;1713426;83;21447;-84
2021/09/16 04:32:09;;;;;;;7.37;6.53;;;;;;;19.12;71.78;96240.66;1704857;83;21063;-84
2021/09/16 04:34:35;;;;;;;9.90;7.28;;;;;;;19.11;71.78;96245.64;1699602;83;21427;-84
2021/09/16 04:37:00;;;;;;;9.18;7.87;;;;;;;19.10;71.92;96248.00;1697723;83;21016;-85
2021/09/16 04:39:27;;;;;;;10.25;8.13;;;;;;;19.08;71.96;96249.55;1694662;83;21043;-84
2021/09/16 04:41:53;;;;;;;8.45;7.75;;;;;;;19.07;72.07;96247.95;1722409;83;21016;-84
2021/09/16 04:44:18;;;;;;;8.35;7.40;;;;;;;19.05;72.17;96250.03;1719766;83;21450;-84
2021/09/16 04:46:44;;;;;;;7.97;7.17;;;;;;;19.01;72.22;96248.89;1720565;83;21023;-84
2021/09/16 04:49:10;;;;;;;7.87;7.15;;;;;;;19.02;72.28;96253.64;1713403;83;20948;-84
2021/09/16 04:51:35;;;;;;;8.05;7.25;;;;;;;19.04;72.46;96255.55;1723754;83;21049;-84
2021/09/16 04:54:01;;;;;;;9.13;7.53;;;;;;;19.03;72.35;96252.59;1727672;82;21046;-84
2021/09/16 04:56:27;;;;;;;8.13;7.33;;;;;;;19.03;72.40;96257.34;1720367;82;21059;-84
2021/09/16 04:58:53;;;;;;;9.98;8.98;;;;;;;19.03;72.47;96263.13;1705645;83;20994;-84
2021/09/16 05:01:18;;;;;;;10.15;7.25;;;;;;;19.04;72.72;96260.81;1699598;83;21079;-84
2021/09/16 05:03:44;;;;;;;7.62;6.92;;;;;;;19.03;72.49;96261.81;1709170;83;21046;-84
2021/09/16 05:06:10;;;;;;;7.87;6.72;;;;;;;19.06;72.85;96261.37;1709165;83;20955;-84
2021/09/16 05:08:36;;;;;;;8.75;7.95;;;;;;;19.09;73.03;96259.05;1694038;83;21077;-84
2021/09/16 05:11:02;;;;;;;8.85;7.55;;;;;;;19.11;72.99;96263.56;1708753;83;20987;-84
2021/09/16 05:13:28;;;;;;;8.88;7.75;;;;;;;19.13;73.18;96261.48;1683871;84;21098;-84
2021/09/16 05:15:54;;;;;;;8.90;8.05;;;;;;;19.15;73.44;96261.23;1699060;83;21040;-84
2021/09/16 05:18:20;;;;;;;9.03;8.10;;;;;;;19.16;73.45;96262.31;1697418;83;21396;-84
2021/09/16 05:20:46;;;;;;;12.70;7.85;;;;;;;19.14;73.56;96264.91;1691339;84;21055;-84
2021/09/16 05:23:11;;;;;;;8.65;7.40;;;;;;;19.16;73.66;96266.78;1706124;83;20982;-84
2021/09/16 05:25:37;;;;;;;8.88;8.05;;;;;;;19.20;73.75;96263.98;1710787;83;21430;-84
2021/09/16 05:28:03;;;;;;;9.10;8.30;;;;;;;19.22;73.77;96268.48;1703983;83;21434;-84
2021/09/16 05:30:29;;;;;;;8.23;7.47;;;;;;;19.24;74.06;96260.34;1676356;84;21010;-84
2021/09/16 05:32:55;;;;;;;9.20;8.40;;;;;;;19.25;74.15;96261.42;1669646;84;20994;-84
2021/09/16 05:35:21;;;;;;;9.33;8.28;;;;;;;19.27;74.29;96259.86;1692153;84;21007;-84
2021/09/16 05:37:47;;;;;;;7.75;7.10;;;;;;;19.28;74.44;96268.84;1702276;84;21398;-84
2021/09/16 05:40:14;;;;;;;9.30;7.42;;;;;;;19.31;74.52;96262.28;1682184;84;21048;-84
2021/09/16 05:42:40;;;;;;;9.68;7.75;;;;;;;19.33;74.57;96256.25;1667364;84;21392;-84
2021/09/16 05:45:07;;;;;;;9.90;8.90;;;;;;;19.37;74.66;96258.71;1681491;84;21016;-84
2021/09/16 05:47:33;;;;;;;8.83;7.97;;;;;;;19.40;74.87;96251.13;1689475;84;21059;-84
2021/09/16 05:49:59;;;;;;;9.15;8.30;;;;;;;19.43;74.96;96253.79;1727057;83;21402;-84
2021/09/16 05:52:24;;;;;;;10.08;8.40;;;;;;;19.45;75.08;96251.70;1690439;84;21057;-84
2021/09/16 05:54:50;;;;;;;9.13;7.87;;;;;;;19.52;75.35;96249.70;1694854;83;21051;-84
2021/09/16 05:57:16;;;;;;;8.15;7.45;;;;;;;19.56;75.47;96256.13;1700286;83;20999;-84
2021/09/16 05:59:42;;;;;;;8.55;7.80;;;;;;;19.59;75.60;96257.48;1699985;83;21499;-84
2021/09/16 06:02:08;;;;;;;9.20;8.33;;;;;;;19.58;75.53;96252.73;1679700;84;21023;-84
2021/09/16 06:04:34;;;;;;;10.00;8.45;;;;;;;19.61;75.51;96251.45;1675410;84;21362;-84
2021/09/16 06:07:03;;;;;;;9.40;8.55;;;;;;;19.62;75.70;96256.47;1694551;83;21044;-84
2021/09/16 06:09:27;;;;;;;9.00;7.92;;;;;;;19.67;75.78;96263.65;1690246;83;21074;-84
2021/09/16 06:11:53;;;;;;;8.45;7.65;;;;;;;19.73;75.96;96267.45;1680650;84;21092;-84
2021/09/16 06:14:18;;;;;;;8.15;7.45;;;;;;;19.76;76.09;96264.33;1684164;83;21017;-84
2021/09/16 06:16:45;;;;;;;9.00;8.10;;;;;;;19.79;76.12;96266.47;1699968;84;20991;-84
2021/09/16 06:19:10;;;;;;;10.00;9.00;;;;;;;19.83;76.19;96272.58;1690355;84;21079;-84
2021/09/16 06:21:36;;;;;;;12.30;9.35;;;;;;;19.88;76.52;96269.51;1670077;84;21076;-84
2021/09/16 06:24:02;;;;;;;9.33;8.25;;;;;;;19.93;76.54;96268.25;1691908;83;21044;-84
2021/09/16 06:26:29;;;;;;;8.58;7.87;;;;;;;19.94;76.63;96269.05;1679630;84;21044;-84
2021/09/16 06:28:54;;;;;;;8.55;7.65;;;;;;;19.95;76.79;96271.95;1692183;84;21011;-84
2021/09/16 06:31:20;;;;;;;9.40;8.33;;;;;;;19.97;76.83;96279.91;1684401;84;21386;-84
2021/09/16 06:33:46;;;;;;;9.03;8.13;;;;;;;20.04;76.83;96278.42;1673638;84;21040;-84
2021/09/16 06:36:12;;;;;;;10.00;9.10;;;;;;;20.06;76.94;96280.30;1680975;84;21023;-84
2021/09/16 06:38:38;;;;;;;9.63;8.65;;;;;;;20.08;77.08;96279.53;1699499;84;21142;-84
2021/09/16 06:41:04;;;;;;;9.15;8.33;;;;;;;20.07;77.21;96273.98;1699682;84;21059;-84
2021/09/16 06:43:31;;;;;;;9.58;8.73;;;;;;;20.05;77.42;96269.47;1681807;84;21031;-84
2021/09/16 06:45:56;;;;;;;8.78;7.83;;;;;;;20.09;77.75;96269.25;1681961;84;21058;-84
2021/09/16 06:48:22;;;;;;;8.95;8.08;;;;;;;20.16;78.08;96278.30;1675300;84;21484;-84
2021/09/16 06:50:48;;;;;;;9.40;8.50;;;;;;;20.20;78.14;96276.27;1680031;84;20937;-84
2021/09/16 06:53:14;;;;;;;10.48;8.43;;;;;;;20.30;78.46;96278.21;1700373;84;21016;-84
2021/09/16 06:55:40;;;;;;;9.50;8.50;;;;;;;20.37;78.24;96286.76;1679996;84;21517;-84
2021/09/16 06:58:05;;;;;;;9.03;8.15;;;;;;;20.41;78.36;96281.78;1689659;84;21025;-84
2021/09/16 07:00:32;;;;;;;9.68;8.78;;;;;;;20.46;78.29;96286.62;1678855;84;21107;-84
2021/09/16 07:02:57;;;;;;;12.50;8.15;;;;;;;20.55;78.34;96292.27;1663784;85;21110;-84
2021/09/16 07:05:23;;;;;;;8.73;7.90;;;;;;;20.66;78.57;96288.19;1683371;84;21513;-84
2021/09/16 07:07:49;;;;;;;8.30;7.58;;;;;;;20.70;78.37;96292.97;1675882;84;21090;-84
2021/09/16 07:10:14;;;;;;;8.73;7.92;;;;;;;20.74;78.47;96287.47;1691982;84;21022;-84
2021/09/16 07:12:40;;;;;;;9.55;8.55;;;;;;;20.85;78.53;96293.94;1671197;84;21080;-84
2021/09/16 07:15:07;;;;;;;9.55;8.63;;;;;;;20.88;78.46;96294.75;1664099;84;21486;-84
2021/09/16 07:17:33;;;;;;;8.60;7.80;;;;;;;20.92;78.61;96291.08;1698590;84;21415;-84
2021/09/16 07:19:59;;;;;;;7.97;7.28;;;;;;;20.93;78.52;96294.00;1679251;84;21025;-84
2021/09/16 07:22:25;;;;;;;10.68;7.50;;;;;;;20.96;78.38;96297.45;1681401;84;21015;-84
2021/09/16 07:24:50;;;;;;;8.95;8.15;;;;;;;21.03;78.34;96294.63;1677889;85;21049;-84
2021/09/16 07:27:16;;;;;;;9.28;8.40;;;;;;;21.09;78.10;96293.09;1701208;83;21172;-84
2021/09/16 07:29:42;;;;;;;9.33;8.38;;;;;;;21.08;77.58;96292.83;1680413;84;21386;-84
2021/09/16 07:32:07;;;;;;;9.38;8.58;;;;;;;21.13;78.20;96293.39;1697091;83;21012;-84
2021/09/16 07:34:33;;;;;;;8.70;7.95;;;;;;;21.16;78.25;96302.95;1699822;83;21047;-84
2021/09/16 07:36:59;;;;;;;8.38;7.53;;;;;;;21.19;78.23;96308.27;1697045;83;21010;-84
2021/09/16 07:39:25;;;;;;;8.43;7.65;;;;;;;21.23;78.32;96308.82;1722262;83;21450;-84
2021/09/16 07:41:51;;;;;;;8.15;7.45;;;;;;;21.30;77.66;96309.16;1706802;83;21079;-84
2021/09/16 07:44:17;;;;;;;12.45;11.15;;;;;;;21.31;76.83;96312.08;1711953;83;21034;-84
2021/09/16 07:46:43;;;;;;;9.90;8.40;;;;;;;21.32;77.18;96309.20;1691349;83;21366;-84
2021/09/16 07:49:09;;;;;;;10.08;9.08;;;;;;;21.35;77.18;96311.87;1698884;83;21008;-84
2021/09/16 07:51:35;;;;;;;9.65;8.63;;;;;;;21.35;77.18;96311.87;1708196;83;21026;-84
2021/09/16 07:54:00;;;;;;;8.90;8.05;;;;;;;21.40;77.07;96315.87;1698404;83;21053;-84
2021/09/16 07:56:26;;;;;;;8.90;8.10;;;;;;;21.43;76.57;96314.83;1715613;83;21423;-84
2021/09/16 07:58:52;;;;;;;9.43;8.63;;;;;;;21.42;76.32;96309.80;1719445;83;21087;-84
2021/09/16 08:01:18;;;;;;;9.90;8.13;;;;;;;21.41;76.60;96308.20;1699407;83;21133;-84
2021/09/16 08:03:43;;;;;;;9.28;8.38;;;;;;;21.38;76.57;96313.48;1704273;83;21417;-84
2021/09/16 08:06:10;;;;;;;8.85;8.00;;;;;;;21.37;76.37;96310.56;1670657;84;21039;-85
2021/09/16 08:08:36;;;;;;;9.60;7.75;;;;;;;21.37;76.19;96315.05;1684888;84;21377;-84
2021/09/16 08:11:02;;;;;;;9.30;8.40;;;;;;;21.34;75.62;96312.39;1704870;84;21020;-84
2021/09/16 08:13:27;;;;;;;9.55;8.60;;;;;;;21.37;76.18;96315.85;1682567;84;20990;-84
2021/09/16 08:15:54;;;;;;;10.78;9.78;;;;;;;21.42;76.37;96314.56;1676897;84;21050;-84
2021/09/16 08:18:19;;;;;;;8.63;7.83;;;;;;;21.47;76.77;96324.38;1682344;84;21028;-84
2021/09/16 08:20:49;;;;;;;8.58;7.72;;;;;;;21.50;76.55;96330.50;1682144;84;20995;-85
2021/09/16 08:23:18;;;;;;;10.68;9.40;;;;;;;21.56;76.37;96332.12;1684328;84;21045;-84
2021/09/16 08:25:44;;;;;;;9.93;8.90;;;;;;;21.63;75.29;96330.58;1682075;83;21063;-84
2021/09/16 08:28:09;;;;;;;9.60;8.60;;;;;;;21.66;74.97;96334.06;1675369;85;21026;-84
2021/09/16 08:30:35;;;;;;;9.38;8.48;;;;;;;21.70;75.99;96333.83;1682515;84;21008;-84
2021/09/16 08:33:01;;;;;;;8.15;7.35;;;;;;;21.74;76.47;96331.73;1672525;84;21052;-84
2021/09/16 08:35:27;;;;;;;10.00;7.70;;;;;;;21.73;76.25;96328.03;1693169;84;21381;-84
2021/09/16 08:37:53;;;;;;;8.50;7.70;;;;;;;21.76;76.46;96331.48;1684162;84;21084;-84
2021/09/16 08:40:21;;;;;;;9.90;8.43;;;;;;;21.81;75.72;96330.22;1693946;84;21047;-84
2021/09/16 08:42:47;;;;;;;12.00;8.93;;;;;;;21.84;74.95;96330.50;1685384;84;21000;-84
2021/09/16 08:45:15;;;;;;;11.00;9.93;;;;;;;21.82;73.89;96331.81;1680712;84;21036;-85
2021/09/16 08:47:44;;;;;;;9.38;8.58;;;;;;;21.85;73.45;96328.66;1678131;85;21031;-85
2021/09/16 08:50:10;;;;;;;10.32;9.05;;;;;;;21.91;74.59;96328.15;1699664;84;21056;-85
2021/09/16 08:52:39;;;;;;;10.78;9.78;;;;;;;21.96;73.41;96335.58;1686693;84;21033;-84
2021/09/16 08:55:07;;;;;;;12.40;10.18;;;;;;;21.98;73.11;96338.00;1656914;85;21019;-85
2021/09/16 08:57:37;;;;;;;11.00;9.90;;;;;;;22.02;72.40;96337.23;1674817;85;21087;-84
2021/09/16 09:00:07;;;;;;;12.30;10.48;;;;;;;22.01;72.91;96342.25;1693648;84;21109;-84
2021/09/16 09:02:34;;;;;;;14.10;10.38;;;;;;;21.97;72.67;96344.34;1674040;85;21051;-84
2021/09/16 09:05:00;;;;;;;10.98;9.60;;;;;;;21.95;72.16;96340.61;1695773;84;21031;-84
2021/09/16 09:07:45;;;;;;;9.48;8.48;;;;;;;21.91;72.08;96344.02;1692962;84;22679;-84
2021/09/16 09:10:32;;;;;;;9.35;8.45;;;;;;;21.85;73.29;96346.64;1694406;84;21043;-84
2021/09/16 09:12:58;;;;;;;9.45;8.50;;;;;;;21.88;74.02;96346.66;1694614;84;21355;-84
2021/09/16 09:15:24;;;;;;;12.10;9.15;;;;;;;21.92;74.02;96346.41;1671835;84;21024;-85
2021/09/16 09:18:16;;;;;;;10.72;9.63;;;;;;;21.93;73.93;96349.33;1680416;84;21154;-84
2021/09/16 09:21:04;;;;;;;13.08;11.78;;;;;;;21.96;74.45;96338.75;1679323;84;21397;-84
2021/09/16 09:23:34;;;;;;;11.12;8.33;;;;;;;21.97;72.70;96341.17;1681646;84;21450;-84
2021/09/16 09:26:19;;;;;;;14.05;12.68;;;;;;;22.03;74.02;96346.76;1681348;84;21008;-85
2021/09/16 09:28:45;;;;;;;12.93;10.15;;;;;;;22.14;73.09;96348.45;1616961;87;21434;-84
2021/09/16 09:31:17;;;;;;;10.65;9.55;;;;;;;22.24;72.07;96342.94;1714888;81;21071;-84
2021/09/16 09:33:43;;;;;;;27.13;24.43;;;;;;;22.33;72.15;96349.36;1728788;81;21059;-85
2021/09/16 09:36:20;;;;;;;24.65;22.22;;;;;;;22.33;70.94;96344.06;1724134;81;21407;-84
2021/09/16 09:38:57;;;;;;;19.70;17.77;;;;;;;22.31;69.59;96345.64;1720641;82;21036;-85
2021/09/16 09:41:31;;;;;;;14.90;13.43;;;;;;;22.28;69.03;96334.75;1739070;81;20975;-84
2021/09/16 09:44:10;;;;;;;10.58;8.73;;;;;;;22.32;70.02;96337.17;1722768;83;21047;-85
2021/09/16 09:46:53;;;;;;;8.08;6.62;;;;;;;22.33;69.86;96339.56;1730346;81;21390;-85
2021/09/16 09:49:24;;;;;;;7.83;6.53;;;;;;;22.32;69.73;96335.33;1726357;82;20999;-85
2021/09/16 09:51:57;;;;;;;13.05;11.70;;;;;;;22.31;69.88;96337.70;1753724;81;21043;-85
2021/09/16 09:54:28;;;;;;;10.50;9.60;;;;;;;22.31;71.05;96337.70;1731575;81;21023;-85
2021/09/16 09:57:10;;;;;;;12.40;11.10;;;;;;;22.29;71.10;96335.84;1725966;81;21028;-84
2021/09/16 09:59:57;;;;;;;9.28;8.20;;;;;;;22.28;71.61;96338.19;1738733;81;21011;-85
2021/09/16 10:02:31;;;;;;;8.35;5.28;;;;;;;22.26;70.93;96339.50;1716416;83;21406;-85
2021/09/16 10:04:57;;;;;;;7.22;5.22;;;;;;;22.16;68.55;96345.02;1663850;84;21079;-85
2021/09/16 10:07:32;;;;;;;7.12;6.12;;;;;;;22.11;68.44;96338.36;1702430;83;20988;-85
2021/09/16 10:09:59;;;;;;;6.03;5.47;;;;;;;22.06;68.45;96334.37;1720127;83;21034;-85
2021/09/16 10:12:26;;;;;;;8.55;6.00;;;;;;;22.02;68.54;96338.55;1725207;83;21039;-84
2021/09/16 10:14:52;;;;;;;7.25;5.55;;;;;;;22.01;68.90;96341.45;1719141;83;21007;-85
2021/09/16 10:17:18;;;;;;;7.40;6.03;;;;;;;22.01;68.63;96340.93;1706435;83;21084;-85
2021/09/16 10:19:44;;;;;;;8.55;6.28;;;;;;;22.00;68.69;96336.69;1702760;83;21091;-84
2021/09/16 10:22:12;;;;;;;7.42;6.42;;;;;;;22.02;68.73;96335.91;1676269;84;21016;-85
2021/09/16 10:24:38;;;;;;;6.67;6.05;;;;;;;22.01;68.55;96331.67;1679072;84;20993;-85
2021/09/16 10:27:03;;;;;;;6.60;5.90;;;;;;;22.05;69.38;96322.20;1661758;84;21022;-85
2021/09/16 10:29:32;;;;;;;6.97;5.80;;;;;;;22.05;69.38;96322.20;1686813;84;21473;-84
2021/09/16 10:32:10;;;;;;;7.72;5.80;;;;;;;22.13;69.67;96323.05;1675554;84;21057;-85
2021/09/16 10:34:56;;;;;;;5.47;4.90;;;;;;;22.24;70.70;96324.41;1671809;85;21021;-85
2021/09/16 10:37:19;;;;;;;7.17;5.33;;;;;;;22.26;70.57;96319.66;1677207;84;21107;-85
2021/09/16 10:39:47;;;;;;;7.20;5.08;;;;;;;22.33;71.41;96314.95;1679034;84;21079;-84
2021/09/16 10:42:13;;;;;;;6.60;4.92;;;;;;;22.45;71.69;96315.50;1676382;84;21471;-84
2021/09/16 10:44:39;;;;;;;7.90;5.78;;;;;;;22.58;72.01;96307.62;1664403;85;21129;-85
2021/09/16 10:47:19;;;;;;;6.97;6.03;;;;;;;22.63;70.62;96316.93;1680229;84;21085;-85
2021/09/16 10:49:46;;;;;;;6.75;5.20;;;;;;;22.68;70.78;96306.34;1679240;84;21122;-85
2021/09/16 10:52:17;;;;;;;8.73;5.42;;;;;;;22.76;69.85;96300.00;1661682;84;21099;-84
2021/09/16 10:54:50;;;;;;;6.85;5.97;;;;;;;22.80;69.13;96306.92;1698917;84;21019;-84
2021/09/16 10:57:39;;;;;;;7.58;5.40;;;;;;;22.82;68.13;96297.39;1689211;84;21062;-85
2021/09/16 11:00:16;;;;;;;6.70;5.47;;;;;;;22.80;67.99;96295.00;1687612;84;21430;-84
2021/09/16 11:02:48;;;;;;;6.58;5.55;;;;;;;22.84;68.51;96292.13;1702240;84;21390;-85
2021/09/16 11:05:20;;;;;;;8.30;5.67;;;;;;;22.99;68.10;96290.83;1696916;84;20985;-85
2021/09/16 11:07:55;;;;;;;5.53;4.83;;;;;;;23.12;67.63;96292.19;1660236;85;21564;-85
2021/09/16 11:10:34;;;;;;;6.97;5.05;;;;;;;23.23;67.18;96296.95;1681847;84;21104;-85
2021/09/16 11:13:25;;;;;;;7.45;5.20;;;;;;;23.34;67.20;96286.09;1667696;85;21028;-85
2021/09/16 11:15:53;;;;;;;7.92;5.70;;;;;;;23.39;65.52;96283.17;1673993;84;21075;-84
2021/09/16 11:18:21;;;;;;;7.58;5.00;;;;;;;23.44;66.85;96284.52;1669173;85;21074;-85
2021/09/16 11:20:48;;;;;;;8.43;5.55;;;;;;;23.47;66.03;96281.33;1688622;84;21041;-85
2021/09/16 11:23:20;;;;;;;6.45;5.30;;;;;;;23.56;65.88;96283.16;1666868;85;21111;-85
2021/09/16 11:25:50;;;;;;;;;;;;;;;23.69;66.05;96278.42;1692537;84;21051;-85
2021/09/16 11:28:17;;;;;;;7.08;4.97;;;;;;;23.81;64.94;96276.29;1721198;83;20149;-84
2021/09/16 11:30:45;;;;;;;4.92;4.42;;;;;;;23.88;64.48;96276.27;1690779;84;21387;-85
2021/09/16 11:33:15;;;;;;;6.42;4.85;;;;;;;23.96;64.59;96277.59;1690250;84;21009;-85